Terminal Aerodrome Forecast
Issued by NWS Rapid City, SD

Home | Current Version | Previous Version | Graphics & Text | Print | Product List | Glossary On
Versions: 1 2 3 4 5 6 7 8 9 10 11 12 13 14
574
FTUS43 KUNR 151120
TAFRAP
TAF
KRAP 151120Z 1512/1612 30005KT P6SM FEW080
     FM151600 33015G25KT P6SM FEW250
     FM160100 VRB05KT P6SM SKC=

USA.gov is the U.S. government's official web portal to all federal, state and local government web resources and services.